createdAt,value
2023-04-03T00:01:41.305Z,13.85
2023-04-03T00:04:48.113Z,20.65
2023-04-03T00:07:55.014Z,13.22
2023-04-03T00:11:01.032Z,11.63
2023-04-03T00:14:06.498Z,11.63
2023-04-03T00:17:13.339Z,15.03
2023-04-03T00:20:20.685Z,11.30
2023-04-03T00:23:26.101Z,14.13
2023-04-03T00:26:32.449Z,14.60
2023-04-03T00:29:39.044Z,10.72
2023-04-03T00:32:44.570Z,14.78
2023-04-03T00:35:51.044Z,9.83
2023-04-03T00:38:57.378Z,8.48
2023-04-03T00:42:05.421Z,25.05
2023-04-03T00:45:11.873Z,10.35
2023-04-03T00:48:19.912Z,9.03
2023-04-03T00:51:31.817Z,12.37
2023-04-03T00:54:37.017Z,8.03
2023-04-03T00:57:42.943Z,8.45
2023-04-03T01:00:48.723Z,11.57
2023-04-03T01:03:55.164Z,10.03
2023-04-03T01:07:00.973Z,13.03
2023-04-03T01:10:10.938Z,9.35
2023-04-03T01:13:16.796Z,9.15
2023-04-03T01:16:24.598Z,11.43
2023-04-03T01:19:30.707Z,9.18
2023-04-03T01:22:39.655Z,6.87
2023-04-03T01:25:45.405Z,6.90
2023-04-03T01:28:51.368Z,8.75
2023-04-03T01:32:13.556Z,8.78
2023-04-03T01:35:19.491Z,12.03
2023-04-03T01:38:25.686Z,10.68
2023-04-03T01:41:33.875Z,5.67
2023-04-03T01:44:45.936Z,4.28
2023-04-03T01:47:51.559Z,6.28
2023-04-03T01:50:57.991Z,7.00
2023-04-03T01:54:04.802Z,4.83
2023-04-03T01:57:10.424Z,7.17
2023-04-03T02:00:15.073Z,6.15
2023-04-03T02:03:14.379Z,9.10
2023-04-03T02:06:20.621Z,7.53
2023-04-03T02:09:27.447Z,9.43
2023-04-03T02:12:33.168Z,13.00
2023-04-03T02:15:39.831Z,17.95
2023-04-03T02:18:46.596Z,16.93
2023-04-03T02:21:52.010Z,19.80
2023-04-03T02:24:59.590Z,23.87
2023-04-03T02:28:06.281Z,25.08
2023-04-03T02:31:06.648Z,38.88
2023-04-03T02:34:14.057Z,43.33
2023-04-03T02:37:21.372Z,53.50
2023-04-03T02:40:27.237Z,44.98
2023-04-03T02:43:32.021Z,33.30
2023-04-03T02:46:36.975Z,21.12
2023-04-03T02:49:42.226Z,15.20
2023-04-03T02:52:41.178Z,10.32
2023-04-03T02:55:48.220Z,13.00
2023-04-03T02:58:54.949Z,8.03
2023-04-03T03:01:55.279Z,12.07
2023-04-03T03:05:00.821Z,30.25
2023-04-03T03:08:07.256Z,14.98
2023-04-03T03:11:13.270Z,11.57
2023-04-03T03:14:18.828Z,15.60
2023-04-03T03:17:24.540Z,13.18
2023-04-03T03:20:30.904Z,16.70
2023-04-03T03:23:30.138Z,20.75
2023-04-03T03:26:35.970Z,23.98
2023-04-03T03:29:42.643Z,31.25
2023-04-03T03:32:48.132Z,28.17
2023-04-03T03:35:53.632Z,32.88
2023-04-03T03:38:59.688Z,32.85
2023-04-03T03:42:05.701Z,31.50
2023-04-03T03:45:11.305Z,27.52
2023-04-03T03:48:16.996Z,24.50
2023-04-03T03:51:22.212Z,27.70
2023-04-03T03:54:29.220Z,31.60
2023-04-03T03:57:36.956Z,30.72
2023-04-03T04:00:42.363Z,25.37
2023-04-03T04:03:49.329Z,21.75
2023-04-03T04:06:56.897Z,23.40
2023-04-03T04:10:03.434Z,31.75
2023-04-03T04:13:08.766Z,30.12
2023-04-03T04:16:14.464Z,22.77
2023-04-03T04:19:20.392Z,19.12
2023-04-03T04:22:26.937Z,20.45
2023-04-03T04:25:25.473Z,23.07
2023-04-03T04:28:19.799Z,27.70
2023-04-03T04:31:28.624Z,24.43
2023-04-03T04:34:35.536Z,29.05
2023-04-03T04:37:42.074Z,21.25
2023-04-03T04:40:48.939Z,18.12
2023-04-03T04:43:55.971Z,15.10
2023-04-03T04:47:01.284Z,14.28
2023-04-03T04:50:07.448Z,18.02
2023-04-03T04:53:14.007Z,18.90
2023-04-03T04:56:18.670Z,15.58
2023-04-03T04:59:25.445Z,12.13
2023-04-03T05:02:31.058Z,11.85
2023-04-03T05:05:38.524Z,8.15
2023-04-03T05:08:46.327Z,9.65
2023-04-03T05:11:52.781Z,14.07
2023-04-03T05:15:00.339Z,16.55
2023-04-03T05:18:06.308Z,16.45
2023-04-03T05:21:12.625Z,14.35
2023-04-03T05:24:19.453Z,16.20
2023-04-03T05:27:27.687Z,23.27
2023-04-03T05:30:33.579Z,26.05
2023-04-03T05:33:41.290Z,29.25
2023-04-03T05:36:49.391Z,27.90
2023-04-03T05:39:54.503Z,30.23
2023-04-03T05:43:01.978Z,27.75
2023-04-03T05:46:09.835Z,24.98
2023-04-03T05:49:09.214Z,31.05
2023-04-03T05:52:15.198Z,33.60
2023-04-03T05:55:22.221Z,33.58
2023-04-03T05:58:29.530Z,34.25
2023-04-03T06:01:35.887Z,34.98
2023-04-03T06:04:41.973Z,18.05
2023-04-03T06:07:47.403Z,8.78
2023-04-03T06:10:47.576Z,5.20
2023-04-03T06:13:53.463Z,4.28
2023-04-03T06:16:59.588Z,5.78
2023-04-03T06:20:05.606Z,3.40
2023-04-03T06:23:10.845Z,6.30
2023-04-03T06:26:16.495Z,3.67
2023-04-03T06:29:22.042Z,4.80
2023-04-03T06:32:27.330Z,4.28
2023-04-03T06:35:34.871Z,5.65
2023-04-03T06:38:41.240Z,7.65
2023-04-03T06:41:46.346Z,5.08
2023-04-03T06:44:55.036Z,8.68
2023-04-03T06:48:01.192Z,5.03
2023-04-03T06:51:08.393Z,5.30
2023-04-03T06:54:07.629Z,10.03
2023-04-03T06:57:13.623Z,8.00
2023-04-03T07:00:19.358Z,9.83
2023-04-03T07:03:27.365Z,16.80
2023-04-03T07:06:41.278Z,19.00
2023-04-03T07:09:48.128Z,16.10
2023-04-03T07:12:53.615Z,13.48
2023-04-03T07:15:59.757Z,13.03
2023-04-03T07:19:05.868Z,29.15
2023-04-03T07:22:11.901Z,28.77
2023-04-03T07:25:11.894Z,13.68
2023-04-03T07:28:18.132Z,11.30
2023-04-03T07:31:27.100Z,12.50
2023-04-03T07:34:33.223Z,10.65
2023-04-03T07:37:40.154Z,10.55
2023-04-03T07:40:46.657Z,9.55
2023-04-03T07:43:52.347Z,9.65
2023-04-03T07:46:58.157Z,7.78
2023-04-03T07:50:04.739Z,8.30
2023-04-03T07:53:11.460Z,7.78
2023-04-03T07:56:16.994Z,7.60
2023-04-03T07:59:22.820Z,9.08
2023-04-03T08:02:28.105Z,6.25
2023-04-03T08:05:35.494Z,6.65
2023-04-03T08:08:43.741Z,6.50
2023-04-03T08:11:48.209Z,5.85
2023-04-03T08:14:47.302Z,5.15
2023-04-03T08:17:53.578Z,4.47
2023-04-03T08:20:59.451Z,3.47
2023-04-03T08:24:05.009Z,3.80
2023-04-03T08:27:09.641Z,3.67
2023-04-03T08:30:14.312Z,2.65
2023-04-03T08:33:20.380Z,2.33
2023-04-03T08:36:34.599Z,2.05
2023-04-03T08:39:39.731Z,2.72
2023-04-03T08:43:36.934Z,2.02
2023-04-03T08:46:57.480Z,1.37
2023-04-03T08:50:15.412Z,2.87
2023-04-03T08:53:21.719Z,2.67
2023-04-03T08:56:27.074Z,2.58
2023-04-03T08:59:37.508Z,1.92
2023-04-03T09:02:50.413Z,1.75
2023-04-03T09:06:20.984Z,1.82
2023-04-03T09:09:48.268Z,3.52
2023-04-03T09:12:59.996Z,1.25
2023-04-03T09:16:06.455Z,1.65
2023-04-03T09:19:38.103Z,1.57
2023-04-03T09:22:52.038Z,2.72
2023-04-03T09:25:49.010Z,3.30
2023-04-03T09:28:57.021Z,4.45
2023-04-03T09:32:03.575Z,6.55
2023-04-03T09:35:20.717Z,3.87
2023-04-03T09:38:27.118Z,3.75
2023-04-03T09:41:33.490Z,5.53
2023-04-03T09:44:34.096Z,5.72
2023-04-03T09:47:52.017Z,5.30
2023-04-03T09:51:17.070Z,9.18
2023-04-03T09:54:48.824Z,7.62
2023-04-03T09:57:56.952Z,7.33
2023-04-03T10:01:11.448Z,10.08
2023-04-03T10:04:33.630Z,5.78
2023-04-03T10:08:01.780Z,6.28
2023-04-03T10:11:02.593Z,4.53
2023-04-03T10:14:17.290Z,5.28
2023-04-03T10:17:35.260Z,5.10
2023-04-03T10:20:54.318Z,4.67
2023-04-03T10:24:05.182Z,5.35
2023-04-03T10:27:27.798Z,7.22
2023-04-03T10:30:43.667Z,7.10
2023-04-03T10:34:07.436Z,10.40
2023-04-03T10:37:36.395Z,8.75
2023-04-03T10:41:17.655Z,14.23
2023-04-03T10:44:53.585Z,10.35
2023-04-03T10:48:44.021Z,8.58
2023-04-03T10:52:12.389Z,8.78
2023-04-03T10:55:42.451Z,11.57
2023-04-03T10:58:56.337Z,9.28
2023-04-03T11:02:08.649Z,10.63
2023-04-03T11:05:34.090Z,11.93
2023-04-03T11:09:16.562Z,11.70
2023-04-03T11:12:51.228Z,12.70
2023-04-03T11:15:57.069Z,17.48
2023-04-03T11:19:19.496Z,15.63
2023-04-03T11:22:34.742Z,19.67
2023-04-03T11:25:42.970Z,18.65
2023-04-03T11:28:52.378Z,20.32
2023-04-03T11:32:19.458Z,23.77
2023-04-03T11:35:27.422Z,25.85
2023-04-03T11:38:50.230Z,25.23
2023-04-03T11:42:06.836Z,21.55
2023-04-03T11:44:56.823Z,22.35
2023-04-03T11:48:24.817Z,23.18
2023-04-03T11:51:45.872Z,27.62
2023-04-03T11:55:02.280Z,23.05
2023-04-03T11:58:20.770Z,25.32
2023-04-03T12:01:27.224Z,29.77
2023-04-03T12:04:34.884Z,38.85
2023-04-03T12:07:40.760Z,33.08
2023-04-03T12:10:47.468Z,36.55
2023-04-03T12:13:56.543Z,36.80
2023-04-03T12:17:04.502Z,34.53
2023-04-03T12:20:11.776Z,38.17
2023-04-03T12:23:51.460Z,44.73
2023-04-03T12:27:14.080Z,40.35
2023-04-03T12:30:34.001Z,41.40
2023-04-03T12:34:02.542Z,43.50
2023-04-03T12:37:24.302Z,41.60
2023-04-03T12:41:13.220Z,27.87
2023-04-03T12:44:57.214Z,28.87
2023-04-03T12:48:06.426Z,23.60
2023-04-03T12:51:11.673Z,19.80
2023-04-03T12:54:30.633Z,22.00
2023-04-03T12:57:42.962Z,22.93
2023-04-03T13:00:50.113Z,26.85
2023-04-03T13:03:59.761Z,28.00
2023-04-03T13:07:06.458Z,24.72
2023-04-03T13:10:18.688Z,19.98
2023-04-03T13:13:26.033Z,17.87
2023-04-03T13:16:32.516Z,20.75
2023-04-03T13:19:39.995Z,16.02
2023-04-03T13:22:50.715Z,15.72
2023-04-03T13:25:58.688Z,18.32
2023-04-03T13:29:03.944Z,12.10
2023-04-03T13:32:10.365Z,11.63
2023-04-03T13:35:18.626Z,11.22
2023-04-03T13:38:40.900Z,13.08
2023-04-03T13:41:46.744Z,12.55
2023-04-03T13:44:53.594Z,12.13
2023-04-03T13:48:00.769Z,14.33
2023-04-03T13:51:16.507Z,12.15
2023-04-03T13:54:38.026Z,14.90
2023-04-03T13:57:44.840Z,16.48
2023-04-03T14:01:02.907Z,12.75
2023-04-03T14:07:20.473Z,13.10
2023-04-03T14:10:26.609Z,12.85
2023-04-03T14:13:33.114Z,12.15
2023-04-03T14:16:42.017Z,11.57
2023-04-03T14:19:49.799Z,10.85
2023-04-03T14:22:56.654Z,10.50
2023-04-03T14:29:28.612Z,13.53
2023-04-03T14:32:35.497Z,12.43
2023-04-03T14:35:41.879Z,13.38
2023-04-03T14:38:46.768Z,14.80
2023-04-03T14:41:53.465Z,14.85
2023-04-03T14:44:59.252Z,16.02
2023-04-03T14:48:07.929Z,15.13
2023-04-03T14:51:13.587Z,14.70
2023-04-03T14:54:21.115Z,17.40
2023-04-03T14:57:27.735Z,17.23
2023-04-03T15:00:35.416Z,20.15
2023-04-03T15:03:41.284Z,14.23
2023-04-03T15:06:49.922Z,13.58
2023-04-03T15:09:56.082Z,13.10
2023-04-03T15:13:03.715Z,15.65
2023-04-03T15:16:11.385Z,15.68
2023-04-03T15:19:18.098Z,16.80
2023-04-03T15:22:32.982Z,14.78
2023-04-03T15:25:40.061Z,14.98
2023-04-03T15:28:44.500Z,16.85
2023-04-03T15:31:50.459Z,18.73
2023-04-03T15:34:56.756Z,15.70
2023-04-03T15:38:03.046Z,17.15
2023-04-03T15:41:09.351Z,18.48
2023-04-03T15:44:14.064Z,20.00
2023-04-03T15:47:19.420Z,24.32
2023-04-03T15:50:25.094Z,23.73
2023-04-03T15:53:31.074Z,29.65
2023-04-03T15:56:37.879Z,26.75
2023-04-03T15:59:37.985Z,28.15
2023-04-03T16:02:43.742Z,31.10
2023-04-03T16:05:49.724Z,25.27
2023-04-03T16:08:56.318Z,26.50
2023-04-03T16:12:03.949Z,24.52
2023-04-03T16:15:11.022Z,25.80
2023-04-03T16:18:17.796Z,30.82
2023-04-03T16:21:23.758Z,28.12
2023-04-03T16:24:29.491Z,25.82
2023-04-03T16:27:37.417Z,29.32
2023-04-03T16:30:42.843Z,24.65
2023-04-03T16:33:48.315Z,27.32
2023-04-03T16:36:54.658Z,24.85
2023-04-03T16:40:01.219Z,27.32
2023-04-03T16:43:06.953Z,24.23
2023-04-03T16:46:13.019Z,28.50
2023-04-03T16:49:18.085Z,30.48
2023-04-03T16:52:24.879Z,27.70
2023-04-03T16:55:30.966Z,36.55
2023-04-03T16:58:36.400Z,29.18
2023-04-03T17:01:41.715Z,33.88
2023-04-03T17:04:47.060Z,27.67
2023-04-03T17:07:52.866Z,32.42
2023-04-03T17:11:00.975Z,31.57
2023-04-03T17:14:07.409Z,32.03
2023-04-03T17:17:12.947Z,35.23
2023-04-03T17:20:18.977Z,39.10
2023-04-03T17:23:25.692Z,33.95
2023-04-03T17:26:31.383Z,39.63
2023-04-03T17:29:37.012Z,39.15
2023-04-03T17:32:43.325Z,35.33
2023-04-03T17:35:49.760Z,29.75
2023-04-03T17:38:56.029Z,32.00
2023-04-03T17:42:02.714Z,30.27
2023-04-03T17:45:09.691Z,32.98
2023-04-03T17:48:15.852Z,30.97
2023-04-03T17:51:27.744Z,33.83
2023-04-03T17:54:33.421Z,31.17
2023-04-03T17:57:39.376Z,30.43
2023-04-03T18:00:44.818Z,28.85
2023-04-03T18:03:50.693Z,32.33
2023-04-03T18:07:02.168Z,29.35
2023-04-03T18:13:15.960Z,35.83
2023-04-03T18:16:24.477Z,27.70
2023-04-03T18:19:30.230Z,36.50
2023-04-03T18:22:36.435Z,30.43
2023-04-03T18:25:41.475Z,29.20
2023-04-03T18:28:48.505Z,34.60
2023-04-03T18:31:56.353Z,42.98
2023-04-03T18:35:01.866Z,37.85
2023-04-03T18:38:08.045Z,43.80
2023-04-03T18:41:14.701Z,38.65
2023-04-03T18:44:22.124Z,46.08
2023-04-03T18:47:27.960Z,38.40
2023-04-03T18:50:33.085Z,42.05
2023-04-03T18:56:46.996Z,42.03
2023-04-03T18:59:53.653Z,41.40
2023-04-03T19:03:00.973Z,37.25
2023-04-03T19:05:59.401Z,41.28
2023-04-03T19:08:52.282Z,42.13
2023-04-03T19:11:57.278Z,36.90
2023-04-03T19:18:11.113Z,40.65
2023-04-03T19:21:19.014Z,36.05
2023-04-03T19:24:26.717Z,37.80
2023-04-03T19:27:33.236Z,33.25
2023-04-03T19:30:40.366Z,34.65
2023-04-03T19:33:48.487Z,40.98
2023-04-03T19:36:57.432Z,41.13
2023-04-03T19:40:03.884Z,40.52
2023-04-03T19:43:10.832Z,37.17
2023-04-03T19:46:16.441Z,38.83
2023-04-03T19:49:21.664Z,42.98
2023-04-03T19:52:19.616Z,37.28
2023-04-03T19:55:25.132Z,38.15
2023-04-03T19:58:31.711Z,43.38
2023-04-03T20:01:37.627Z,44.77
2023-04-03T20:04:44.843Z,39.10
2023-04-03T20:07:51.323Z,39.95
2023-04-03T20:10:58.100Z,41.37
2023-04-03T20:14:05.759Z,43.75
2023-04-03T20:17:11.449Z,37.90
2023-04-03T20:20:17.173Z,53.58
2023-04-03T20:23:23.393Z,42.43
2023-04-03T20:26:35.109Z,44.30
2023-04-03T20:29:41.921Z,45.35
2023-04-03T20:32:48.790Z,47.45
2023-04-03T20:35:54.968Z,43.85
2023-04-03T20:39:02.829Z,53.00
2023-04-03T20:42:10.313Z,52.83
2023-04-03T20:45:15.950Z,42.38
2023-04-03T20:48:23.637Z,41.35
2023-04-03T20:51:31.847Z,47.40
2023-04-03T20:54:38.354Z,47.15
2023-04-03T20:57:44.407Z,42.40
2023-04-03T21:00:51.271Z,38.08
2023-04-03T21:03:58.109Z,40.95
2023-04-03T21:07:59.822Z,44.25
2023-04-03T21:11:54.316Z,51.58
2023-04-03T21:16:06.867Z,39.27
2023-04-03T21:19:34.472Z,43.20
2023-04-03T21:22:40.370Z,45.50
2023-04-03T21:25:46.331Z,42.78
2023-04-03T21:28:52.173Z,44.38
2023-04-03T21:32:12.196Z,47.80
2023-04-03T21:38:22.600Z,42.53
2023-04-03T21:41:29.362Z,46.23
2023-04-03T21:44:35.540Z,39.80
2023-04-03T21:47:42.614Z,41.28
2023-04-03T21:50:48.517Z,45.50
2023-04-03T21:53:54.541Z,46.83
2023-04-03T21:57:00.439Z,42.13
2023-04-03T22:00:05.992Z,52.20
2023-04-03T22:03:12.113Z,50.45
2023-04-03T22:06:20.230Z,48.02
2023-04-03T22:09:27.150Z,44.15
2023-04-03T22:12:34.505Z,43.50
2023-04-03T22:15:40.506Z,44.30
2023-04-03T22:18:47.728Z,47.48
2023-04-03T22:21:54.515Z,42.55
2023-04-03T22:25:00.316Z,49.88
2023-04-03T22:28:07.254Z,47.20
2023-04-03T22:31:21.394Z,52.85
2023-04-03T22:34:28.357Z,52.27
2023-04-03T22:37:34.115Z,44.45
2023-04-03T22:40:41.422Z,43.28
2023-04-03T22:43:48.983Z,45.90
2023-04-03T22:46:57.769Z,44.40
2023-04-03T22:50:04.146Z,37.78
2023-04-03T22:53:09.521Z,48.50
2023-04-03T22:56:16.905Z,50.17
2023-04-03T22:59:23.326Z,39.90
2023-04-03T23:02:30.466Z,41.75
2023-04-03T23:05:35.661Z,45.73
2023-04-03T23:08:48.807Z,36.83
2023-04-03T23:11:54.012Z,42.78
2023-04-03T23:14:59.001Z,42.08
2023-04-03T23:18:05.687Z,35.80
2023-04-03T23:21:14.187Z,41.37
2023-04-03T23:24:20.253Z,36.00
2023-04-03T23:27:27.612Z,33.70
2023-04-03T23:30:33.040Z,40.43
2023-04-03T23:33:40.442Z,30.10
2023-04-03T23:36:46.558Z,36.80
2023-04-03T23:39:52.371Z,31.90
2023-04-03T23:42:58.998Z,36.00
2023-04-03T23:46:05.351Z,34.27
2023-04-03T23:49:12.210Z,32.78
2023-04-03T23:52:17.683Z,35.15
2023-04-03T23:55:23.787Z,37.90
2023-04-03T23:58:28.972Z,39.23
